sensor_id;sensor_type;location;lat;lon;timestamp;P1;durP1;ratioP1;P2;durP2;ratioP2
45254;SDS011;30989;52.078;21.014;2022-08-24T00:00:02;12.75;;;5.22;;
45254;SDS011;30989;52.078;21.014;2022-08-24T00:02:32;16.45;;;5.65;;
45254;SDS011;30989;52.078;21.014;2022-08-24T00:04:57;11.95;;;4.82;;
45254;SDS011;30989;52.078;21.014;2022-08-24T00:07:23;7.10;;;4.07;;
45254;SDS011;30989;52.078;21.014;2022-08-24T00:09:49;12.48;;;4.25;;
45254;SDS011;30989;52.078;21.014;2022-08-24T00:12:15;10.25;;;5.05;;
45254;SDS011;30989;52.078;21.014;2022-08-24T00:14:41;8.18;;;4.72;;
45254;SDS011;30989;52.078;21.014;2022-08-24T00:17:07;14.52;;;4.80;;
45254;SDS011;30989;52.078;21.014;2022-08-24T00:19:33;7.55;;;4.07;;
45254;SDS011;30989;52.078;21.014;2022-08-24T00:22:00;13.80;;;5.10;;
45254;SDS011;30989;52.078;21.014;2022-08-24T00:24:25;10.70;;;5.15;;
45254;SDS011;30989;52.078;21.014;2022-08-24T00:26:52;17.55;;;4.72;;
45254;SDS011;30989;52.078;21.014;2022-08-24T00:29:19;8.18;;;4.05;;
45254;SDS011;30989;52.078;21.014;2022-08-24T00:31:46;8.50;;;4.32;;
45254;SDS011;30989;52.078;21.014;2022-08-24T00:34:11;8.55;;;4.38;;
45254;SDS011;30989;52.078;21.014;2022-08-24T00:36:38;8.85;;;4.07;;
45254;SDS011;30989;52.078;21.014;2022-08-24T00:39:06;9.63;;;4.32;;
45254;SDS011;30989;52.078;21.014;2022-08-24T00:41:32;11.82;;;4.35;;
45254;SDS011;30989;52.078;21.014;2022-08-24T00:44:00;8.38;;;4.15;;
45254;SDS011;30989;52.078;21.014;2022-08-24T00:49:09;11.32;;;4.55;;
45254;SDS011;30989;52.078;21.014;2022-08-24T00:51:40;16.73;;;4.80;;
45254;SDS011;30989;52.078;21.014;2022-08-24T00:54:12;11.68;;;4.30;;
45254;SDS011;30989;52.078;21.014;2022-08-24T00:56:43;12.32;;;4.45;;
45254;SDS011;30989;52.078;21.014;2022-08-24T00:59:14;13.48;;;5.47;;
45254;SDS011;30989;52.078;21.014;2022-08-24T01:01:46;12.70;;;4.40;;
45254;SDS011;30989;52.078;21.014;2022-08-24T01:04:16;9.52;;;4.38;;
45254;SDS011;30989;52.078;21.014;2022-08-24T01:06:46;12.50;;;5.25;;
45254;SDS011;30989;52.078;21.014;2022-08-24T01:09:13;8.25;;;4.38;;
45254;SDS011;30989;52.078;21.014;2022-08-24T01:11:38;16.98;;;5.68;;
45254;SDS011;30989;52.078;21.014;2022-08-24T01:14:04;8.93;;;4.95;;
45254;SDS011;30989;52.078;21.014;2022-08-24T01:16:30;11.15;;;5.75;;
45254;SDS011;30989;52.078;21.014;2022-08-24T01:19:28;9.05;;;4.25;;
45254;SDS011;30989;52.078;21.014;2022-08-24T01:24:53;13.27;;;5.45;;
45254;SDS011;30989;52.078;21.014;2022-08-24T01:27:19;10.02;;;5.40;;
45254;SDS011;30989;52.078;21.014;2022-08-24T01:29:45;10.15;;;4.75;;
45254;SDS011;30989;52.078;21.014;2022-08-24T01:32:18;9.15;;;4.70;;
45254;SDS011;30989;52.078;21.014;2022-08-24T01:34:47;10.63;;;5.00;;
45254;SDS011;30989;52.078;21.014;2022-08-24T01:37:12;9.38;;;4.43;;
45254;SDS011;30989;52.078;21.014;2022-08-24T01:39:40;11.00;;;5.18;;
45254;SDS011;30989;52.078;21.014;2022-08-24T01:42:08;9.55;;;4.50;;
45254;SDS011;30989;52.078;21.014;2022-08-24T01:44:35;10.10;;;4.57;;
45254;SDS011;30989;52.078;21.014;2022-08-24T01:47:03;9.88;;;4.35;;
45254;SDS011;30989;52.078;21.014;2022-08-24T01:49:33;9.45;;;4.65;;
45254;SDS011;30989;52.078;21.014;2022-08-24T01:52:03;6.63;;;4.50;;
45254;SDS011;30989;52.078;21.014;2022-08-24T01:54:30;16.42;;;4.80;;
45254;SDS011;30989;52.078;21.014;2022-08-24T01:56:57;8.93;;;5.13;;
45254;SDS011;30989;52.078;21.014;2022-08-24T01:59:25;9.40;;;4.40;;
45254;SDS011;30989;52.078;21.014;2022-08-24T02:01:53;7.70;;;4.00;;
45254;SDS011;30989;52.078;21.014;2022-08-24T02:04:37;9.18;;;4.53;;
45254;SDS011;30989;52.078;21.014;2022-08-24T02:07:03;7.13;;;3.92;;
45254;SDS011;30989;52.078;21.014;2022-08-24T02:09:30;9.00;;;3.95;;
45254;SDS011;30989;52.078;21.014;2022-08-24T02:11:57;10.25;;;4.45;;
45254;SDS011;30989;52.078;21.014;2022-08-24T02:14:24;11.57;;;4.55;;
45254;SDS011;30989;52.078;21.014;2022-08-24T02:16:50;9.80;;;5.03;;
45254;SDS011;30989;52.078;21.014;2022-08-24T02:19:22;11.15;;;5.10;;
45254;SDS011;30989;52.078;21.014;2022-08-24T02:21:47;9.30;;;4.88;;
45254;SDS011;30989;52.078;21.014;2022-08-24T02:24:13;10.63;;;5.85;;
45254;SDS011;30989;52.078;21.014;2022-08-24T02:26:39;11.52;;;5.57;;
45254;SDS011;30989;52.078;21.014;2022-08-24T02:29:05;12.35;;;5.05;;
45254;SDS011;30989;52.078;21.014;2022-08-24T02:31:31;12.05;;;5.32;;
45254;SDS011;30989;52.078;21.014;2022-08-24T02:33:58;10.88;;;5.70;;
45254;SDS011;30989;52.078;21.014;2022-08-24T02:36:23;11.65;;;5.47;;
45254;SDS011;30989;52.078;21.014;2022-08-24T02:38:49;14.07;;;6.25;;
45254;SDS011;30989;52.078;21.014;2022-08-24T02:41:17;14.45;;;5.18;;
45254;SDS011;30989;52.078;21.014;2022-08-24T02:43:42;10.93;;;4.78;;
45254;SDS011;30989;52.078;21.014;2022-08-24T02:46:15;13.55;;;5.32;;
45254;SDS011;30989;52.078;21.014;2022-08-24T02:48:44;10.50;;;5.00;;
45254;SDS011;30989;52.078;21.014;2022-08-24T02:51:17;14.07;;;5.28;;
45254;SDS011;30989;52.078;21.014;2022-08-24T02:53:46;11.07;;;5.15;;
45254;SDS011;30989;52.078;21.014;2022-08-24T02:56:13;12.02;;;5.88;;
45254;SDS011;30989;52.078;21.014;2022-08-24T02:58:39;14.35;;;5.85;;
45254;SDS011;30989;52.078;21.014;2022-08-24T03:01:05;14.23;;;5.13;;
45254;SDS011;30989;52.078;21.014;2022-08-24T03:03:30;9.43;;;4.50;;
45254;SDS011;30989;52.078;21.014;2022-08-24T03:05:57;12.40;;;5.03;;
45254;SDS011;30989;52.078;21.014;2022-08-24T03:08:22;7.38;;;5.45;;
45254;SDS011;30989;52.078;21.014;2022-08-24T03:10:48;9.23;;;4.95;;
45254;SDS011;30989;52.078;21.014;2022-08-24T03:13:15;10.82;;;5.28;;
45254;SDS011;30989;52.078;21.014;2022-08-24T03:15:41;12.25;;;7.40;;
45254;SDS011;30989;52.078;21.014;2022-08-24T03:18:07;8.50;;;5.20;;
45254;SDS011;30989;52.078;21.014;2022-08-24T03:20:32;12.68;;;5.90;;
45254;SDS011;30989;52.078;21.014;2022-08-24T03:22:58;8.77;;;5.28;;
45254;SDS011;30989;52.078;21.014;2022-08-24T03:25:23;27.55;;;14.63;;
45254;SDS011;30989;52.078;21.014;2022-08-24T03:27:51;11.75;;;6.38;;
45254;SDS011;30989;52.078;21.014;2022-08-24T03:30:17;11.88;;;5.60;;
45254;SDS011;30989;52.078;21.014;2022-08-24T03:32:45;9.98;;;5.25;;
45254;SDS011;30989;52.078;21.014;2022-08-24T03:35:12;11.32;;;5.00;;
45254;SDS011;30989;52.078;21.014;2022-08-24T03:37:38;12.73;;;6.03;;
45254;SDS011;30989;52.078;21.014;2022-08-24T03:40:05;13.85;;;5.88;;
45254;SDS011;30989;52.078;21.014;2022-08-24T03:42:33;17.95;;;5.15;;
45254;SDS011;30989;52.078;21.014;2022-08-24T03:44:58;9.63;;;5.05;;
45254;SDS011;30989;52.078;21.014;2022-08-24T03:47:25;8.73;;;5.05;;
45254;SDS011;30989;52.078;21.014;2022-08-24T03:49:50;9.55;;;5.22;;
45254;SDS011;30989;52.078;21.014;2022-08-24T03:52:17;16.15;;;7.40;;
45254;SDS011;30989;52.078;21.014;2022-08-24T03:54:43;15.75;;;5.30;;
45254;SDS011;30989;52.078;21.014;2022-08-24T03:57:09;14.43;;;5.43;;
45254;SDS011;30989;52.078;21.014;2022-08-24T03:59:34;8.50;;;5.00;;
45254;SDS011;30989;52.078;21.014;2022-08-24T04:02:00;7.72;;;4.97;;
45254;SDS011;30989;52.078;21.014;2022-08-24T04:04:26;10.38;;;5.13;;
45254;SDS011;30989;52.078;21.014;2022-08-24T04:06:51;10.63;;;5.22;;
45254;SDS011;30989;52.078;21.014;2022-08-24T04:09:18;10.45;;;5.10;;
45254;SDS011;30989;52.078;21.014;2022-08-24T04:11:46;14.43;;;5.13;;
45254;SDS011;30989;52.078;21.014;2022-08-24T04:14:13;10.88;;;5.90;;
45254;SDS011;30989;52.078;21.014;2022-08-24T04:16:41;10.75;;;5.32;;
45254;SDS011;30989;52.078;21.014;2022-08-24T04:19:16;11.27;;;5.57;;
45254;SDS011;30989;52.078;21.014;2022-08-24T04:21:42;16.90;;;5.10;;
45254;SDS011;30989;52.078;21.014;2022-08-24T04:24:09;10.68;;;5.25;;
45254;SDS011;30989;52.078;21.014;2022-08-24T04:26:36;9.18;;;4.95;;
45254;SDS011;30989;52.078;21.014;2022-08-24T04:29:04;11.18;;;5.47;;
45254;SDS011;30989;52.078;21.014;2022-08-24T04:31:37;13.02;;;5.38;;
45254;SDS011;30989;52.078;21.014;2022-08-24T04:34:04;10.82;;;5.22;;
45254;SDS011;30989;52.078;21.014;2022-08-24T04:36:30;11.10;;;5.30;;
45254;SDS011;30989;52.078;21.014;2022-08-24T04:38:56;8.77;;;4.93;;
45254;SDS011;30989;52.078;21.014;2022-08-24T04:41:48;15.88;;;5.47;;
45254;SDS011;30989;52.078;21.014;2022-08-24T04:44:15;9.57;;;5.35;;
45254;SDS011;30989;52.078;21.014;2022-08-24T04:46:41;13.13;;;5.43;;
45254;SDS011;30989;52.078;21.014;2022-08-24T04:49:07;14.30;;;6.68;;
45254;SDS011;30989;52.078;21.014;2022-08-24T04:51:33;11.30;;;5.80;;
45254;SDS011;30989;52.078;21.014;2022-08-24T04:53:59;8.60;;;4.85;;
45254;SDS011;30989;52.078;21.014;2022-08-24T04:56:25;11.65;;;6.60;;
45254;SDS011;30989;52.078;21.014;2022-08-24T04:58:54;11.80;;;6.22;;
45254;SDS011;30989;52.078;21.014;2022-08-24T05:01:22;9.23;;;5.18;;
45254;SDS011;30989;52.078;21.014;2022-08-24T05:03:50;16.70;;;7.72;;
45254;SDS011;30989;52.078;21.014;2022-08-24T05:06:19;8.85;;;5.70;;
45254;SDS011;30989;52.078;21.014;2022-08-24T05:08:46;13.63;;;5.65;;
45254;SDS011;30989;52.078;21.014;2022-08-24T05:11:13;11.13;;;5.88;;
45254;SDS011;30989;52.078;21.014;2022-08-24T05:13:41;12.68;;;6.15;;
45254;SDS011;30989;52.078;21.014;2022-08-24T05:16:09;15.10;;;6.57;;
45254;SDS011;30989;52.078;21.014;2022-08-24T05:18:38;14.38;;;5.88;;
45254;SDS011;30989;52.078;21.014;2022-08-24T05:21:05;13.55;;;5.68;;
45254;SDS011;30989;52.078;21.014;2022-08-24T05:23:36;19.23;;;5.90;;
45254;SDS011;30989;52.078;21.014;2022-08-24T05:26:05;9.70;;;5.85;;
45254;SDS011;30989;52.078;21.014;2022-08-24T05:28:42;11.18;;;5.60;;
45254;SDS011;30989;52.078;21.014;2022-08-24T05:31:12;8.98;;;5.60;;
45254;SDS011;30989;52.078;21.014;2022-08-24T05:33:42;15.77;;;5.78;;
45254;SDS011;30989;52.078;21.014;2022-08-24T05:36:16;9.52;;;5.03;;
45254;SDS011;30989;52.078;21.014;2022-08-24T05:38:44;12.00;;;5.85;;
45254;SDS011;30989;52.078;21.014;2022-08-24T05:41:12;15.40;;;6.38;;
45254;SDS011;30989;52.078;21.014;2022-08-24T05:43:41;11.68;;;6.13;;
45254;SDS011;30989;52.078;21.014;2022-08-24T05:46:07;16.02;;;6.95;;
45254;SDS011;30989;52.078;21.014;2022-08-24T05:48:32;13.05;;;5.82;;
45254;SDS011;30989;52.078;21.014;2022-08-24T05:51:21;9.60;;;5.18;;
45254;SDS011;30989;52.078;21.014;2022-08-24T05:53:55;11.82;;;5.47;;
45254;SDS011;30989;52.078;21.014;2022-08-24T05:56:25;16.57;;;6.80;;
45254;SDS011;30989;52.078;21.014;2022-08-24T05:58:51;12.93;;;6.20;;
45254;SDS011;30989;52.078;21.014;2022-08-24T06:01:20;17.60;;;5.55;;
45254;SDS011;30989;52.078;21.014;2022-08-24T06:03:48;11.07;;;5.72;;
45254;SDS011;30989;52.078;21.014;2022-08-24T06:06:15;17.38;;;5.82;;
45254;SDS011;30989;52.078;21.014;2022-08-24T06:08:44;13.73;;;6.45;;
45254;SDS011;30989;52.078;21.014;2022-08-24T06:11:20;10.70;;;5.10;;
45254;SDS011;30989;52.078;21.014;2022-08-24T06:16:23;10.35;;;5.95;;
45254;SDS011;30989;52.078;21.014;2022-08-24T06:18:50;19.00;;;6.35;;
45254;SDS011;30989;52.078;21.014;2022-08-24T06:21:23;12.65;;;5.03;;
45254;SDS011;30989;52.078;21.014;2022-08-24T06:23:50;9.85;;;5.38;;
45254;SDS011;30989;52.078;21.014;2022-08-24T06:26:16;16.75;;;6.18;;
45254;SDS011;30989;52.078;21.014;2022-08-24T06:29:02;14.73;;;5.65;;
45254;SDS011;30989;52.078;21.014;2022-08-24T06:31:30;14.05;;;6.10;;
45254;SDS011;30989;52.078;21.014;2022-08-24T06:33:59;14.35;;;6.85;;
45254;SDS011;30989;52.078;21.014;2022-08-24T06:36:24;8.32;;;5.43;;
45254;SDS011;30989;52.078;21.014;2022-08-24T06:38:50;10.07;;;5.78;;
45254;SDS011;30989;52.078;21.014;2022-08-24T06:41:16;11.68;;;5.75;;
45254;SDS011;30989;52.078;21.014;2022-08-24T06:43:42;12.90;;;6.38;;
45254;SDS011;30989;52.078;21.014;2022-08-24T06:46:11;12.43;;;5.45;;
45254;SDS011;30989;52.078;21.014;2022-08-24T06:48:40;9.88;;;5.47;;
45254;SDS011;30989;52.078;21.014;2022-08-24T06:51:07;11.23;;;4.85;;
45254;SDS011;30989;52.078;21.014;2022-08-24T06:56:06;9.02;;;5.28;;
45254;SDS011;30989;52.078;21.014;2022-08-24T06:58:33;12.40;;;6.43;;
45254;SDS011;30989;52.078;21.014;2022-08-24T07:01:09;11.02;;;5.75;;
45254;SDS011;30989;52.078;21.014;2022-08-24T07:03:37;13.43;;;5.90;;
45254;SDS011;30989;52.078;21.014;2022-08-24T07:06:29;11.05;;;5.10;;
45254;SDS011;30989;52.078;21.014;2022-08-24T07:08:58;12.05;;;5.38;;
45254;SDS011;30989;52.078;21.014;2022-08-24T07:11:25;12.88;;;4.68;;
45254;SDS011;30989;52.078;21.014;2022-08-24T07:13:51;19.75;;;8.23;;
45254;SDS011;30989;52.078;21.014;2022-08-24T07:16:18;9.57;;;5.50;;
45254;SDS011;30989;52.078;21.014;2022-08-24T07:18:49;13.02;;;5.93;;
45254;SDS011;30989;52.078;21.014;2022-08-24T07:21:17;21.77;;;5.60;;
45254;SDS011;30989;52.078;21.014;2022-08-24T07:23:46;14.98;;;4.70;;
45254;SDS011;30989;52.078;21.014;2022-08-24T07:26:15;18.90;;;6.57;;
45254;SDS011;30989;52.078;21.014;2022-08-24T07:28:44;12.32;;;4.97;;
45254;SDS011;30989;52.078;21.014;2022-08-24T07:31:10;20.42;;;5.80;;
45254;SDS011;30989;52.078;21.014;2022-08-24T07:33:45;18.13;;;4.80;;
45254;SDS011;30989;52.078;21.014;2022-08-24T07:36:11;14.07;;;5.35;;
45254;SDS011;30989;52.078;21.014;2022-08-24T07:38:39;20.33;;;6.30;;
45254;SDS011;30989;52.078;21.014;2022-08-24T07:41:05;17.25;;;5.05;;
45254;SDS011;30989;52.078;21.014;2022-08-24T07:43:32;18.80;;;4.68;;
45254;SDS011;30989;52.078;21.014;2022-08-24T07:45:58;18.25;;;5.63;;
45254;SDS011;30989;52.078;21.014;2022-08-24T07:48:24;12.43;;;5.50;;
45254;SDS011;30989;52.078;21.014;2022-08-24T07:50:50;20.35;;;4.93;;
45254;SDS011;30989;52.078;21.014;2022-08-24T07:53:17;14.48;;;5.07;;
45254;SDS011;30989;52.078;21.014;2022-08-24T07:55:50;13.43;;;4.70;;
45254;SDS011;30989;52.078;21.014;2022-08-24T07:58:17;8.70;;;3.75;;
45254;SDS011;30989;52.078;21.014;2022-08-24T08:00:47;9.73;;;4.18;;
45254;SDS011;30989;52.078;21.014;2022-08-24T08:03:16;15.70;;;4.53;;
45254;SDS011;30989;52.078;21.014;2022-08-24T08:05:43;17.30;;;4.47;;
45254;SDS011;30989;52.078;21.014;2022-08-24T08:08:09;12.90;;;4.50;;
45254;SDS011;30989;52.078;21.014;2022-08-24T08:10:36;18.48;;;5.03;;
45254;SDS011;30989;52.078;21.014;2022-08-24T08:13:06;19.70;;;5.65;;
45254;SDS011;30989;52.078;21.014;2022-08-24T08:15:31;22.05;;;5.03;;
45254;SDS011;30989;52.078;21.014;2022-08-24T08:18:04;18.45;;;5.82;;
45254;SDS011;30989;52.078;21.014;2022-08-24T08:20:32;14.52;;;5.05;;
45254;SDS011;30989;52.078;21.014;2022-08-24T08:22:59;20.55;;;7.47;;
45254;SDS011;30989;52.078;21.014;2022-08-24T08:26:02;14.80;;;4.00;;
45254;SDS011;30989;52.078;21.014;2022-08-24T08:28:52;16.48;;;4.80;;
45254;SDS011;30989;52.078;21.014;2022-08-24T08:31:17;26.08;;;5.70;;
45254;SDS011;30989;52.078;21.014;2022-08-24T08:33:43;19.85;;;4.55;;
45254;SDS011;30989;52.078;21.014;2022-08-24T08:36:11;25.10;;;4.82;;
45254;SDS011;30989;52.078;21.014;2022-08-24T08:38:46;15.60;;;3.60;;
45254;SDS011;30989;52.078;21.014;2022-08-24T08:44:11;15.70;;;4.93;;
45254;SDS011;30989;52.078;21.014;2022-08-24T08:46:52;22.23;;;5.18;;
45254;SDS011;30989;52.078;21.014;2022-08-24T08:55:33;22.15;;;5.38;;
45254;SDS011;30989;52.078;21.014;2022-08-24T09:03:56;16.67;;;4.32;;
45254;SDS011;30989;52.078;21.014;2022-08-24T09:12:47;20.27;;;5.13;;
45254;SDS011;30989;52.078;21.014;2022-08-24T09:30:26;22.70;;;5.50;;
45254;SDS011;30989;52.078;21.014;2022-08-24T09:33:10;21.83;;;4.40;;
45254;SDS011;30989;52.078;21.014;2022-08-24T10:15:41;25.08;;;3.92;;
45254;SDS011;30989;52.078;21.014;2022-08-24T10:24:30;20.75;;;4.55;;
45254;SDS011;30989;52.078;21.014;2022-08-24T10:27:03;35.70;;;4.28;;
45254;SDS011;30989;52.078;21.014;2022-08-24T10:32:51;27.17;;;5.63;;
45254;SDS011;30989;52.078;21.014;2022-08-24T10:35:54;45.35;;;4.88;;
45254;SDS011;30989;52.078;21.014;2022-08-24T10:38:49;37.60;;;6.82;;
45254;SDS011;30989;52.078;21.014;2022-08-24T10:47:30;33.53;;;5.18;;
45254;SDS011;30989;52.078;21.014;2022-08-24T10:50:19;26.92;;;3.72;;
45254;SDS011;30989;52.078;21.014;2022-08-24T10:52:51;41.83;;;6.45;;
45254;SDS011;30989;52.078;21.014;2022-08-24T10:55:30;33.92;;;5.03;;
45254;SDS011;30989;52.078;21.014;2022-08-24T11:00:44;29.17;;;5.10;;
45254;SDS011;30989;52.078;21.014;2022-08-24T11:03:11;27.73;;;4.47;;
45254;SDS011;30989;52.078;21.014;2022-08-24T11:05:47;33.67;;;5.43;;
45254;SDS011;30989;52.078;21.014;2022-08-24T11:08:27;51.88;;;5.22;;
45254;SDS011;30989;52.078;21.014;2022-08-24T11:11:07;18.23;;;4.53;;
45254;SDS011;30989;52.078;21.014;2022-08-24T11:16:29;24.70;;;4.82;;
45254;SDS011;30989;52.078;21.014;2022-08-24T11:18:56;25.65;;;4.63;;
45254;SDS011;30989;52.078;21.014;2022-08-24T11:21:34;27.70;;;4.80;;
45254;SDS011;30989;52.078;21.014;2022-08-24T11:24:10;22.63;;;4.30;;
45254;SDS011;30989;52.078;21.014;2022-08-24T11:29:26;28.00;;;4.40;;
45254;SDS011;30989;52.078;21.014;2022-08-24T11:32:24;17.93;;;5.13;;
45254;SDS011;30989;52.078;21.014;2022-08-24T11:35:02;25.15;;;5.55;;
45254;SDS011;30989;52.078;21.014;2022-08-24T11:37:35;23.45;;;4.07;;
45254;SDS011;30989;52.078;21.014;2022-08-24T11:40:04;22.27;;;4.70;;
45254;SDS011;30989;52.078;21.014;2022-08-24T11:48:20;20.58;;;4.63;;
45254;SDS011;30989;52.078;21.014;2022-08-24T11:51:04;22.13;;;4.72;;
45254;SDS011;30989;52.078;21.014;2022-08-24T11:53:41;32.88;;;4.65;;
45254;SDS011;30989;52.078;21.014;2022-08-24T11:56:40;20.73;;;5.22;;
45254;SDS011;30989;52.078;21.014;2022-08-24T11:59:42;31.60;;;5.38;;
45254;SDS011;30989;52.078;21.014;2022-08-24T12:02:40;24.45;;;4.90;;
45254;SDS011;30989;52.078;21.014;2022-08-24T12:08:15;21.50;;;4.28;;
45254;SDS011;30989;52.078;21.014;2022-08-24T12:14:05;19.90;;;4.82;;
45254;SDS011;30989;52.078;21.014;2022-08-24T12:16:45;21.33;;;4.57;;
45254;SDS011;30989;52.078;21.014;2022-08-24T12:22:20;18.42;;;4.03;;
45254;SDS011;30989;52.078;21.014;2022-08-24T12:24:49;20.85;;;4.82;;
45254;SDS011;30989;52.078;21.014;2022-08-24T12:27:23;22.52;;;3.90;;
45254;SDS011;30989;52.078;21.014;2022-08-24T12:29:54;24.73;;;4.53;;
45254;SDS011;30989;52.078;21.014;2022-08-24T12:32:30;25.33;;;5.57;;
45254;SDS011;30989;52.078;21.014;2022-08-24T12:40:29;23.38;;;4.85;;
45254;SDS011;30989;52.078;21.014;2022-08-24T12:43:03;34.03;;;5.57;;
45254;SDS011;30989;52.078;21.014;2022-08-24T12:45:32;31.77;;;5.50;;
45254;SDS011;30989;52.078;21.014;2022-08-24T13:01:32;22.55;;;4.50;;
45254;SDS011;30989;52.078;21.014;2022-08-24T13:04:12;28.20;;;4.40;;
45254;SDS011;30989;52.078;21.014;2022-08-24T13:06:48;28.67;;;5.60;;
45254;SDS011;30989;52.078;21.014;2022-08-24T13:09:36;23.30;;;4.57;;
45254;SDS011;30989;52.078;21.014;2022-08-24T13:23:04;30.10;;;5.13;;
45254;SDS011;30989;52.078;21.014;2022-08-24T13:25:40;25.63;;;5.18;;
45254;SDS011;30989;52.078;21.014;2022-08-24T13:39:38;23.73;;;4.70;;
45254;SDS011;30989;52.078;21.014;2022-08-24T13:42:12;27.38;;;5.15;;
45254;SDS011;30989;52.078;21.014;2022-08-24T13:55:37;26.27;;;5.03;;
45254;SDS011;30989;52.078;21.014;2022-08-24T13:58:14;25.80;;;5.60;;
45254;SDS011;30989;52.078;21.014;2022-08-24T14:00:47;19.85;;;4.85;;
45254;SDS011;30989;52.078;21.014;2022-08-24T14:11:32;31.77;;;10.18;;
45254;SDS011;30989;52.078;21.014;2022-08-24T14:14:03;37.90;;;6.68;;
45254;SDS011;30989;52.078;21.014;2022-08-24T14:16:37;29.65;;;4.97;;
45254;SDS011;30989;52.078;21.014;2022-08-24T14:25:20;25.50;;;4.63;;
45254;SDS011;30989;52.078;21.014;2022-08-24T14:41:00;26.73;;;4.82;;
45254;SDS011;30989;52.078;21.014;2022-08-24T14:49:10;37.55;;;7.57;;
45254;SDS011;30989;52.078;21.014;2022-08-24T14:55:01;34.28;;;6.10;;
45254;SDS011;30989;52.078;21.014;2022-08-24T15:01:02;31.80;;;5.35;;
45254;SDS011;30989;52.078;21.014;2022-08-24T15:03:40;52.90;;;10.85;;
45254;SDS011;30989;52.078;21.014;2022-08-24T15:09:07;35.45;;;6.00;;
45254;SDS011;30989;52.078;21.014;2022-08-24T15:11:36;36.25;;;6.32;;
45254;SDS011;30989;52.078;21.014;2022-08-24T15:14:06;42.97;;;6.63;;
45254;SDS011;30989;52.078;21.014;2022-08-24T15:16:46;36.17;;;5.10;;
45254;SDS011;30989;52.078;21.014;2022-08-24T15:19:20;32.80;;;6.00;;
45254;SDS011;30989;52.078;21.014;2022-08-24T15:21:55;42.90;;;5.15;;
45254;SDS011;30989;52.078;21.014;2022-08-24T15:27:49;35.65;;;5.57;;
45254;SDS011;30989;52.078;21.014;2022-08-24T15:30:17;55.25;;;11.57;;
45254;SDS011;30989;52.078;21.014;2022-08-24T15:32:59;39.42;;;6.15;;
45254;SDS011;30989;52.078;21.014;2022-08-24T15:35:39;39.65;;;4.78;;
45254;SDS011;30989;52.078;21.014;2022-08-24T15:41:04;49.03;;;6.20;;
45254;SDS011;30989;52.078;21.014;2022-08-24T15:43:31;30.67;;;5.32;;
45254;SDS011;30989;52.078;21.014;2022-08-24T15:46:00;36.80;;;5.97;;
45254;SDS011;30989;52.078;21.014;2022-08-24T15:48:26;34.50;;;5.93;;
45254;SDS011;30989;52.078;21.014;2022-08-24T15:50:53;34.33;;;6.95;;
45254;SDS011;30989;52.078;21.014;2022-08-24T15:58:46;42.40;;;6.13;;
45254;SDS011;30989;52.078;21.014;2022-08-24T16:03:58;46.53;;;6.20;;
45254;SDS011;30989;52.078;21.014;2022-08-24T16:08:58;46.75;;;7.05;;
45254;SDS011;30989;52.078;21.014;2022-08-24T16:11:31;42.35;;;7.50;;
45254;SDS011;30989;52.078;21.014;2022-08-24T16:14:02;51.13;;;7.93;;
45254;SDS011;30989;52.078;21.014;2022-08-24T16:16:47;34.83;;;6.28;;
45254;SDS011;30989;52.078;21.014;2022-08-24T16:19:25;47.35;;;11.98;;
45254;SDS011;30989;52.078;21.014;2022-08-24T16:21:56;52.72;;;8.32;;
45254;SDS011;30989;52.078;21.014;2022-08-24T16:24:40;35.33;;;5.38;;
45254;SDS011;30989;52.078;21.014;2022-08-24T16:27:14;30.63;;;5.55;;
45254;SDS011;30989;52.078;21.014;2022-08-24T16:29:42;44.85;;;6.70;;
45254;SDS011;30989;52.078;21.014;2022-08-24T16:32:23;47.28;;;5.63;;
45254;SDS011;30989;52.078;21.014;2022-08-24T16:35:16;45.42;;;6.57;;
45254;SDS011;30989;52.078;21.014;2022-08-24T16:37:45;54.22;;;6.78;;
45254;SDS011;30989;52.078;21.014;2022-08-24T16:40:10;34.75;;;7.10;;
45254;SDS011;30989;52.078;21.014;2022-08-24T16:42:39;38.55;;;6.28;;
45254;SDS011;30989;52.078;21.014;2022-08-24T16:45:05;55.70;;;7.63;;
45254;SDS011;30989;52.078;21.014;2022-08-24T16:47:34;46.75;;;7.07;;
45254;SDS011;30989;52.078;21.014;2022-08-24T16:50:00;58.47;;;7.28;;
45254;SDS011;30989;52.078;21.014;2022-08-24T16:52:27;42.80;;;5.35;;
45254;SDS011;30989;52.078;21.014;2022-08-24T16:54:53;49.15;;;6.80;;
45254;SDS011;30989;52.078;21.014;2022-08-24T16:57:20;48.13;;;6.43;;
45254;SDS011;30989;52.078;21.014;2022-08-24T16:59:48;56.45;;;8.15;;
45254;SDS011;30989;52.078;21.014;2022-08-24T17:02:16;59.58;;;8.52;;
45254;SDS011;30989;52.078;21.014;2022-08-24T17:04:43;52.40;;;8.50;;
45254;SDS011;30989;52.078;21.014;2022-08-24T17:07:10;49.00;;;6.43;;
45254;SDS011;30989;52.078;21.014;2022-08-24T17:09:40;54.20;;;7.95;;
45254;SDS011;30989;52.078;21.014;2022-08-24T17:12:08;49.05;;;10.38;;
45254;SDS011;30989;52.078;21.014;2022-08-24T17:14:34;48.78;;;10.73;;
45254;SDS011;30989;52.078;21.014;2022-08-24T17:17:02;39.58;;;7.22;;
45254;SDS011;30989;52.078;21.014;2022-08-24T17:19:29;47.30;;;7.78;;
45254;SDS011;30989;52.078;21.014;2022-08-24T17:21:56;41.60;;;6.75;;
45254;SDS011;30989;52.078;21.014;2022-08-24T17:24:22;56.80;;;7.72;;
45254;SDS011;30989;52.078;21.014;2022-08-24T17:26:48;41.78;;;7.63;;
45254;SDS011;30989;52.078;21.014;2022-08-24T17:29:15;49.47;;;8.88;;
45254;SDS011;30989;52.078;21.014;2022-08-24T17:31:41;52.75;;;7.28;;
45254;SDS011;30989;52.078;21.014;2022-08-24T17:34:06;40.80;;;6.28;;
45254;SDS011;30989;52.078;21.014;2022-08-24T17:36:32;46.15;;;7.03;;
45254;SDS011;30989;52.078;21.014;2022-08-24T17:38:59;43.38;;;6.80;;
45254;SDS011;30989;52.078;21.014;2022-08-24T17:41:26;48.95;;;8.07;;
45254;SDS011;30989;52.078;21.014;2022-08-24T17:43:52;43.47;;;6.90;;
45254;SDS011;30989;52.078;21.014;2022-08-24T17:46:18;60.00;;;10.95;;
45254;SDS011;30989;52.078;21.014;2022-08-24T17:48:44;46.83;;;6.30;;
45254;SDS011;30989;52.078;21.014;2022-08-24T17:51:11;55.95;;;8.90;;
45254;SDS011;30989;52.078;21.014;2022-08-24T17:53:37;46.58;;;8.38;;
45254;SDS011;30989;52.078;21.014;2022-08-24T17:56:03;43.60;;;7.05;;
45254;SDS011;30989;52.078;21.014;2022-08-24T17:58:30;50.25;;;7.60;;
45254;SDS011;30989;52.078;21.014;2022-08-24T18:00:56;74.55;;;9.38;;
45254;SDS011;30989;52.078;21.014;2022-08-24T18:03:22;39.28;;;5.90;;
45254;SDS011;30989;52.078;21.014;2022-08-24T18:05:48;54.55;;;8.38;;
45254;SDS011;30989;52.078;21.014;2022-08-24T18:08:14;46.08;;;9.82;;
45254;SDS011;30989;52.078;21.014;2022-08-24T18:10:40;43.10;;;5.93;;
45254;SDS011;30989;52.078;21.014;2022-08-24T18:13:05;35.45;;;5.80;;
45254;SDS011;30989;52.078;21.014;2022-08-24T18:15:33;47.92;;;8.05;;
45254;SDS011;30989;52.078;21.014;2022-08-24T18:18:00;48.25;;;6.53;;
45254;SDS011;30989;52.078;21.014;2022-08-24T18:20:27;40.83;;;6.13;;
45254;SDS011;30989;52.078;21.014;2022-08-24T18:22:57;51.75;;;6.10;;
45254;SDS011;30989;52.078;21.014;2022-08-24T18:25:23;51.25;;;9.10;;
45254;SDS011;30989;52.078;21.014;2022-08-24T18:27:50;50.10;;;8.05;;
45254;SDS011;30989;52.078;21.014;2022-08-24T18:30:24;55.72;;;6.57;;
45254;SDS011;30989;52.078;21.014;2022-08-24T18:32:52;50.63;;;7.78;;
45254;SDS011;30989;52.078;21.014;2022-08-24T18:35:18;42.65;;;6.85;;
45254;SDS011;30989;52.078;21.014;2022-08-24T18:37:45;38.55;;;5.55;;